Date,TemperatureHighF,TemperatureAvgF,TemperatureLowF,DewpointHighF,DewpointAvgF,DewpointLowF,HumidityHigh,HumidityAvg,HumidityLow,PressureMaxIn,PressureMinIn,WindSpeedMaxMPH,WindSpeedAvgMPH,GustSpeedMaxMPH,PrecipitationSumIn
2013-1-15,52.7,46.8,44.2,52.4,44.6,-99.9,99,97,99,29.85,29.77,8,-15,0,0.33
2013-1-16,51.3,47.5,43.5,51.0,47.2,43.2,99,99,99,29.80,29.72,6,2,0,0.44
2013-1-17,51.8,47.1,35.8,51.5,46.8,35.5,99,99,99,30.01,29.51,10,2,0,1.70
2013-1-18,52.5,41.1,33.8,35.3,26.0,20.5,97,57,30,30.28,30.01,8,2,0,0.00
2013-1-19,53.2,41.3,33.4,28.9,24.8,21.8,68,53,30,30.25,29.96,5,1,0,0.00
2013-1-20,63.9,49.0,38.8,38.0,29.9,25.4,63,48,33,29.95,29.79,7,2,0,0.00
2013-1-21,60.4,47.8,39.2,30.7,24.9,14.3,56,42,24,29.84,29.72,12,2,0,0.00
2013-1-22,46.9,35.6,28.2,19.0,13.7,8.9,54,41,27,30.01,29.79,5,1,0,0.00
2013-1-23,51.3,37.4,25.3,28.2,18.4,6.5,59,46,37,30.10,29.85,6,2,0,0.00
2013-1-24,48.0,40.8,27.1,34.4,20.3,4.4,76,47,22,30.23,29.78,5,2,0,0.00
2013-1-25,29.1,25.8,23.2,28.6,17.1,6.1,98,72,42,30.25,29.86,5,1,0,0.00
2013-1-26,53.4,39.1,27.7,38.6,32.0,27.5,99,79,44,30.08,29.86,4,1,0,0.04
2013-1-27,46.4,37.6,29.8,31.2,29.3,26.1,92,73,55,30.30,30.08,5,2,0,0.00
2013-1-28,50.9,44.4,40.3,43.9,36.5,29.7,95,74,61,30.20,30.00,4,1,0,0.00
2013-1-29,68.5,58.4,44.8,58.7,53.5,43.4,95,84,69,30.00,29.75,6,2,0,0.00
2013-1-30,67.5,61.1,45.5,63.1,57.9,44.4,99,90,81,29.75,29.21,10,4,0,1.10
2013-1-31,48.0,40.8,33.6,44.4,26.3,18.2,96,59,31,29.82,29.34,10,5,0,0.00
2013-2-1,43.9,36.4,27.3,27.2,15.1,4.8,66,43,25,30.10,29.73,10,3,0,0.00
2013-2-2,42.8,32.0,23.4,35.7,18.5,7.7,99,61,26,30.12,29.80,9,2,0,0.01
2013-2-3,51.8,40.3,31.3,36.4,28.8,21.4,99,67,31,29.80,29.65,9,3,0,0.00
2013-2-4,49.5,38.5,29.8,28.4,23.6,19.4,70,56,36,29.90,29.78,4,1,0,0.00
2013-2-5,61.3,47.6,37.2,43.9,35.5,27.1,86,64,41,29.77,29.68,8,2,0,0.00
2013-2-6,66.7,52.6,43.0,42.5,32.6,23.4,90,52,20,29.96,29.77,6,1,0,0.00
2013-2-7,51.6,44.2,40.5,40.9,32.6,23.8,99,68,35,29.99,29.73,9,3,0,0.47
2013-2-8,58.8,46.7,39.2,48.1,38.2,21.7,97,76,31,29.90,29.68,9,3,0,0.00
2013-2-9,62.1,48.1,37.8,28.6,21.3,11.5,66,36,21,30.10,29.89,11,3,0,0.00
2013-2-10,57.4,47.6,41.2,45.9,31.4,21.4,99,56,34,30.19,29.93,6,1,0,0.34
2013-2-11,55.2,51.2,46.9,54.6,50.6,46.6,99,98,92,29.93,29.75,8,2,0,0.16
2013-2-12,58.6,49.7,43.5,47.0,35.6,27.4,97,62,31,29.88,29.67,7,1,0,0.11
2013-2-13,51.6,44.0,38.7,45.3,40.7,31.8,99,89,67,29.67,29.45,7,2,0,0.02
2013-2-14,52.5,42.6,33.4,34.7,32.1,28.4,85,67,48,29.85,29.66,6,2,0,0.00
2013-2-15,60.8,48.9,38.5,37.3,33.0,31.1,78,56,35,29.88,29.71,6,2,0,0.00
2013-2-16,42.6,36.2,25.9,31.6,24.2,11.2,92,62,42,29.82,29.61,6,2,0,0.01
2013-2-17,45.9,32.1,22.1,18.7,9.4,3.0,76,41,18,30.04,29.82,9,2,0,0.01
2013-2-18,55.9,41.1,29.1,26.2,19.7,11.4,58,43,31,30.15,29.98,6,1,0,0.00
2013-2-19,52.0,41.7,35.2,43.7,31.3,13.8,99,70,32,29.98,29.69,6,2,0,0.21
2013-2-20,57.4,42.0,30.7,20.1,15.3,8.7,49,34,20,29.91,29.82,5,1,0,0.00
2013-2-21,58.8,45.3,33.4,37.7,18.5,8.5,79,36,22,30.00,29.85,5,2,0,0.04
2013-2-22,42.3,38.4,37.0,38.9,37.3,35.4,99,96,78,30.03,29.87,4,2,0,0.35
2013-2-23,43.7,40.5,36.9,43.2,40.0,36.6,99,98,92,29.88,29.63,5,2,0,0.24
2013-2-24,70.5,50.1,37.4,46.2,37.9,26.6,99,69,29,29.79,29.64,6,1,0,0.00
2013-2-25,48.0,42.7,34.9,31.7,27.3,24.7,87,55,46,29.92,29.77,7,3,0,0.00
2013-2-26,41.4,37.0,32.4,41.1,36.4,31.2,99,97,90,29.77,29.38,10,4,0,0.33
2013-2-27,56.5,44.7,35.6,38.3,35.4,32.4,88,72,49,29.61,29.46,9,3,0,0.00
2013-3-4,54.9,48.9,43.2,24.4,20.2,16.0,42,32,23,29.91,29.82,6,2,0,0.00
2013-3-5,51.6,45.3,40.8,47.0,37.8,24.2,99,77,42,29.85,29.44,6,1,0,0.42
2013-3-6,47.5,37.8,31.8,31.1,24.3,18.7,76,59,43,29.89,29.49,10,4,0,0.00
2013-3-7,62.4,41.5,28.2,32.3,26.9,23.6,84,59,31,30.02,29.89,7,2,0,0.00
2013-3-8,66.2,45.2,29.1,26.4,19.4,8.3,75,43,13,30.12,29.97,9,2,0,0.00
2013-3-9,66.0,50.4,39.4,30.1,26.2,20.1,52,40,25,30.15,30.01,6,2,0,0.00
2013-3-10,68.7,56.3,47.1,37.6,33.8,28.6,60,43,29,30.08,29.93,6,1,0,0.00
2013-3-11,66.6,55.8,49.1,54.6,47.1,37.4,99,74,54,29.95,29.60,5,1,0,0.62
2013-3-12,71.4,56.9,45.3,55.6,46.2,29.4,99,72,31,29.78,29.53,7,2,0,0.12
2013-3-13,55.9,45.3,36.1,30.1,23.7,16.4,63,44,23,29.95,29.79,12,3,0,0.00
2013-3-14,35.6,32.0,29.8,19.3,16.2,12.6,56,52,45,30.08,29.95,10,3,0,0.00
2013-3-18,41.7,41.1,40.5,41.4,40.8,40.0,99,99,98,29.77,29.65,5,2,0,0.25
2013-3-19,68.4,51.1,40.8,43.6,32.2,16.8,99,59,17,29.83,29.64,13,3,0,0.00
2013-3-20,59.0,48.9,42.6,21.4,14.0,8.5,40,25,19,29.89,29.60,8,3,0,0.00
2013-3-21,52.2,38.7,29.3,28.8,17.1,8.8,74,44,22,29.73,29.58,6,2,0,0.00
2013-3-22,48.6,38.1,28.2,26.6,17.8,12.1,54,44,33,29.87,29.73,7,1,0,0.00
2013-3-23,51.4,44.6,39.9,46.4,38.6,26.4,97,81,51,29.83,29.67,3,1,0,0.04
2013-3-24,44.8,42.5,40.5,43.6,42.0,40.2,99,98,93,29.70,29.34,8,2,0,0.83
2013-3-25,46.0,38.8,31.8,40.7,26.8,19.4,99,65,39,29.72,29.35,14,5,0,0.02
2013-3-26,47.7,36.7,27.1,25.4,22.3,20.0,80,58,36,29.99,29.71,12,2,0,0.00
2013-3-27,59.2,41.9,30.7,25.5,23.0,19.1,70,49,26,30.08,29.94,7,2,0,0.00
2013-3-28,66.0,44.7,30.9,25.9,22.4,18.4,70,45,18,30.11,29.95,6,2,0,0.00
2013-3-29,58.3,47.4,38.3,40.0,27.6,18.8,68,47,28,30.14,30.00,8,2,0,0.00
2013-3-30,68.4,54.8,43.3,44.7,41.2,38.7,91,63,37,30.00,29.82,6,1,0,0.00
2013-3-31,68.7,57.5,50.5,56.4,52.7,45.5,99,85,58,29.85,29.62,7,2,0,0.57
2013-4-1,72.7,61.1,52.3,55.7,42.6,35.4,98,56,28,29.75,29.62,10,3,0,0.02
2013-4-2,68.5,55.9,44.6,36.0,29.8,21.5,60,39,19,29.92,29.74,8,2,0,0.00
2013-4-3,62.1,53.2,46.9,30.7,24.8,19.4,45,33,25,30.02,29.86,5,2,0,0.00
2013-4-4,52.2,41.6,35.6,37.5,33.3,25.3,99,76,44,29.99,29.74,6,2,0,0.47
2013-4-5,68.5,49.5,35.2,46.3,37.7,26.7,99,70,21,29.83,29.67,8,2,0,0.00
2013-4-6,70.9,59.5,48.7,38.3,34.5,32.2,55,40,25,29.98,29.82,7,2,0,0.00
2013-4-7,72.5,60.0,48.4,48.8,43.7,32.7,77,56,39,30.01,29.86,8,2,0,0.00
2013-4-8,79.5,65.6,55.9,56.6,52.0,45.9,86,64,41,29.93,29.81,10,2,0,0.00
2013-4-9,83.8,69.6,58.1,58.9,54.6,51.1,81,61,39,29.96,29.85,7,1,0,0.00
2013-4-10,86.2,71.6,59.5,60.5,57.5,55.1,87,63,41,29.88,29.69,6,1,0,0.00
2013-4-11,80.1,68.5,61.7,66.4,60.7,55.7,99,78,53,29.73,29.47,6,1,0,0.14
2013-4-12,77.7,66.6,58.6,66.4,53.1,36.1,99,69,27,29.57,29.41,11,3,0,1.01
2013-4-13,82.8,63.6,49.6,43.7,39.6,36.5,67,44,21,29.76,29.57,5,1,0,0.00
2013-4-14,70.5,62.2,55.0,53.5,43.7,35.5,91,53,36,29.84,29.73,4,1,0,0.04
2013-4-15,70.0,60.6,54.0,59.8,56.5,52.3,99,87,63,29.94,29.71,6,2,0,0.16
2013-4-16,80.6,68.1,59.7,62.1,58.6,55.8,89,73,50,30.05,29.93,5,1,0,0.00
2013-4-17,81.7,67.1,62.2,65.0,61.2,57.9,99,82,56,30.00,29.87,5,1,0,0.25
2013-4-18,79.3,68.7,60.8,63.9,61.5,60.1,98,80,53,29.91,29.71,5,0,0,0.00
2013-4-19,67.5,61.4,49.6,65.5,59.8,49.3,99,95,84,29.71,29.53,6,2,0,0.78
2013-4-20,70.5,51.9,39.6,49.7,35.5,30.1,99,57,26,30.02,29.69,4,2,0,0.00
2013-4-21,65.1,54.9,47.7,42.1,35.5,29.7,67,49,33,30.17,30.02,7,2,0,0.00
2013-4-22,66.0,53.2,44.8,42.0,38.7,35.1,81,60,37,30.17,29.96,8,2,0,0.00
2013-4-23,76.8,58.5,46.2,49.8,41.8,32.2,72,55,36,30.03,29.86,4,1,0,0.00
2013-4-24,73.6,61.0,51.1,59.2,54.3,48.8,96,80,57,29.91,29.79,5,2,0,0.00
2013-4-25,75.6,61.9,50.0,58.6,41.6,24.5,97,53,24,30.03,29.82,5,2,0,0.00
2013-4-26,75.0,61.6,52.0,44.0,35.7,29.2,48,39,26,30.18,30.03,7,2,0,0.00
2013-4-27,62.2,55.8,52.7,56.5,51.0,38.5,99,86,43,30.11,29.99,5,1,0,0.36
2013-4-28,53.1,52.0,50.2,52.8,51.6,49.9,99,99,97,30.01,29.81,6,2,0,1.52
2013-4-29,75.6,61.0,52.9,62.6,56.6,52.6,99,87,54,29.83,29.68,4,1,0,0.06
2013-4-30,77.4,64.4,58.3,62.0,58.7,56.9,98,83,53,29.92,29.74,6,1,0,0.00
2013-5-1,67.1,60.7,55.0,57.4,54.5,52.4,92,81,65,30.03,29.92,5,2,0,0.00
2013-5-2,59.5,57.2,55.4,57.5,55.4,54.1,97,94,86,30.04,29.98,6,2,0,0.02
2013-5-3,62.4,57.0,54.1,57.0,54.7,52.8,99,92,79,29.98,29.84,5,2,0,0.04
2013-5-4,56.8,52.3,49.5,53.1,48.4,43.7,99,87,70,29.84,29.70,7,3,0,0.87
2013-5-5,53.1,50.3,47.5,52.8,50.0,47.2,99,99,99,29.73,29.58,7,3,0,2.02
2013-5-6,63.7,55.5,49.8,54.9,51.0,46.1,99,86,60,29.68,29.56,4,1,0,0.01
2013-5-7,70.0,56.5,48.7,56.5,49.2,44.7,97,79,42,29.73,29.63,4,1,0,0.16
2013-5-8,74.5,61.8,52.2,60.0,54.8,51.7,99,80,55,29.79,29.69,4,1,0,0.00
2013-5-9,83.5,68.7,56.3,61.3,55.8,51.0,86,65,42,29.86,29.76,5,1,0,0.00
2013-5-10,79.3,69.6,61.9,67.3,60.4,56.9,85,73,55,29.84,29.71,4,1,0,0.06
2013-5-11,77.9,67.7,60.8,65.4,60.7,56.6,91,79,65,29.73,29.58,4,1,0,0.02
2013-5-12,81.5,63.8,55.2,58.4,44.5,30.6,93,54,18,29.80,29.62,6,1,0,0.00
2013-5-13,76.5,58.4,46.9,39.0,33.9,30.1,65,41,23,29.97,29.80,3,1,0,0.00
2013-5-14,77.2,61.8,49.1,51.9,42.0,31.9,69,49,36,30.03,29.85,4,1,0,0.00
2013-5-15,90.3,71.4,58.8,62.4,57.1,51.3,81,63,39,29.88,29.69,5,1,0,0.00
2013-5-16,83.3,72.5,66.2,63.8,58.8,52.5,73,63,45,29.79,29.72,4,0,0,0.00
2013-5-17,84.6,73.3,64.0,65.1,60.7,58.1,85,66,42,29.85,29.76,4,1,0,0.00
2013-5-18,74.1,68.2,63.9,68.3,64.0,59.7,98,87,68,29.90,29.79,3,0,0,1.14
2013-5-19,74.1,68.4,65.1,68.6,65.6,63.6,98,91,78,29.87,29.76,3,0,0,0.15
2013-5-20,84.7,71.8,63.5,70.3,66.3,62.6,97,84,61,29.88,29.77,4,0,0,0.00
2013-5-21,90.1,75.4,66.9,71.7,67.1,63.7,93,77,52,29.81,29.66,3,0,0,0.00
2013-5-22,85.5,72.1,62.4,70.7,65.7,61.2,96,81,60,29.75,29.60,4,1,0,0.48
2013-5-23,84.2,69.8,61.9,69.9,63.3,57.7,98,82,50,29.71,29.57,3,1,0,0.33
2013-5-24,77.7,66.2,57.7,57.9,48.5,39.3,85,56,26,29.97,29.65,5,1,0,0.00
2013-5-25,78.8,64.7,53.1,51.9,43.5,33.0,68,47,26,30.07,29.92,5,1,0,0.00
2013-5-26,83.8,66.4,59.0,54.0,45.9,35.5,66,48,31,30.05,29.92,4,1,0,0.00
2013-5-27,74.5,63.7,60.4,57.5,51.9,49.4,71,66,52,30.02,29.94,3,0,0,0.00
2013-5-31,80.8,76.0,74.7,65.7,64.4,63.5,71,67,60,29.87,29.84,0,0,0,0.00
2013-6-1,87.8,75.8,67.5,68.1,65.6,63.1,87,72,51,29.89,29.75,4,1,0,0.00
2013-6-2,75.0,70.3,66.0,71.9,66.5,64.0,97,88,74,29.80,29.66,3,1,0,1.85
2013-6-3,86.7,71.7,64.8,72.7,67.5,63.9,98,88,59,29.71,29.60,3,0,0,0.04
2013-6-4,84.9,73.3,65.7,69.8,65.9,62.0,91,79,54,29.81,29.69,4,1,0,0.00
2013-6-5,82.6,71.6,67.1,72.3,66.8,64.1,96,85,69,29.84,29.70,5,2,0,0.27
2013-6-6,72.5,67.2,63.5,70.4,65.9,62.3,97,96,93,29.74,29.59,3,0,0,0.54
2013-6-7,81.5,73.2,67.1,75.5,70.0,65.6,97,90,80,29.59,29.44,3,1,0,0.08
2013-6-8,85.1,72.9,65.1,71.0,67.5,64.1,97,84,59,29.84,29.59,5,0,0,0.00
2013-6-9,82.8,72.4,68.5,74.0,68.8,66.8,97,89,73,29.89,29.80,4,0,0,0.43
2013-6-10,76.1,70.3,66.6,71.3,68.6,65.4,98,94,82,29.81,29.68,5,1,0,0.70
2013-6-11,96.1,76.0,67.5,73.8,68.6,64.1,98,81,38,29.77,29.68,4,1,0,0.30
2013-6-12,91.9,79.6,69.6,78.5,70.7,64.0,90,75,57,29.79,29.66,3,0,0,0.00
2013-6-13,91.2,78.1,69.6,74.6,70.5,66.2,92,79,51,29.67,29.45,5,1,0,0.01
2013-6-14,88.2,74.3,63.7,66.2,58.5,54.4,90,60,36,29.78,29.54,4,1,0,0.00
2013-6-15,86.4,74.1,65.3,64.3,59.0,53.2,71,60,46,29.90,29.78,4,0,0,0.00
2013-6-16,91.4,75.5,65.7,69.2,64.6,59.4,89,70,42,29.91,29.76,4,1,0,0.00
2013-6-17,84.9,73.9,68.5,74.8,70.1,67.2,96,88,69,29.80,29.69,4,0,0,1.07
2013-6-18,80.6,71.7,66.4,75.2,69.9,64.6,97,94,83,29.71,29.54,4,1,0,2.10
2013-6-19,80.6,72.0,65.7,70.7,66.5,63.4,94,84,61,29.86,29.65,4,1,0,0.00
2013-6-20,82.9,72.7,66.6,69.5,66.3,63.7,92,81,61,29.98,29.85,5,1,0,0.00
2013-6-21,85.8,73.3,65.7,67.4,64.3,62.3,90,75,48,30.03,29.91,4,1,0,0.00
2013-6-22,86.7,74.4,64.9,66.7,63.4,59.6,87,70,46,29.99,29.85,4,1,0,0.00
2013-6-23,86.7,75.8,69.4,74.1,69.1,64.4,93,80,58,29.97,29.85,5,0,0,0.04
2013-6-24,88.7,77.1,69.3,74.1,71.0,67.8,96,83,60,29.99,29.84,4,0,0,0.06
2013-6-25,89.8,75.7,70.5,74.2,70.7,68.1,96,86,58,29.91,29.77,3,0,0,0.62
2013-6-26,87.1,76.0,69.8,76.5,71.7,68.6,97,87,65,29.82,29.67,3,0,0,0.00
2013-6-27,90.3,77.5,69.8,77.5,73.1,68.3,98,87,64,29.72,29.47,5,1,0,0.19
2013-6-28,95.0,79.3,69.3,74.2,71.2,67.5,95,78,50,29.54,29.35,5,1,0,0.00
2013-6-29,90.3,77.0,68.7,72.5,69.3,67.2,97,79,49,29.48,29.37,4,0,0,0.00
2013-6-30,87.1,74.8,69.6,73.7,70.0,68.0,96,86,59,29.58,29.45,3,0,0,0.00
2013-7-1,82.6,72.8,67.5,73.7,69.7,67.2,99,91,72,29.71,29.57,4,0,0,0.85
2013-7-2,81.7,73.1,67.8,75.4,71.2,67.5,99,94,77,29.89,29.71,3,0,0,0.48
2013-7-3,80.6,72.0,65.1,73.9,70.3,64.8,99,95,79,29.99,29.86,4,1,0,1.83
2013-7-4,76.5,68.9,64.8,76.2,68.6,64.5,99,99,99,29.99,29.91,7,1,0,6.24
2013-7-5,84.7,72.2,67.8,74.4,70.5,67.5,99,95,71,30.02,29.93,3,0,0,0.52
2013-7-6,83.3,73.7,69.4,77.9,72.4,69.1,99,96,71,29.99,29.87,6,0,0,1.19
2013-7-7,83.8,74.8,70.9,76.5,72.7,70.6,99,94,73,29.94,29.84,4,0,0,0.15
2013-7-8,86.4,75.0,70.7,77.5,72.8,70.4,99,93,74,29.96,29.86,3,0,0,0.07
2013-7-9,93.7,77.4,69.3,77.1,72.8,69.0,99,87,54,29.95,29.80,7,0,0,0.31
2013-7-10,90.3,75.3,70.0,77.1,72.4,69.7,99,92,63,29.91,29.70,2,0,0,0.20
2013-7-11,80.6,74.8,72.1,76.5,73.5,71.4,99,96,84,29.74,29.64,0,0,0,0.00
2013-7-12,84.4,72.8,64.6,74.9,70.6,64.3,99,94,69,29.75,29.62,5,1,0,3.23
2013-7-13,76.6,69.5,63.3,73.8,68.9,63.0,99,98,91,29.87,29.75,5,1,0,0.07
2013-7-14,76.6,72.0,70.3,75.3,71.5,70.0,99,99,92,30.03,29.86,6,1,0,1.12
2013-7-15,85.3,74.5,69.8,75.9,71.9,69.5,99,92,68,30.10,29.99,6,1,0,0.00
2013-7-16,95.7,79.4,71.8,76.3,72.7,70.8,99,82,50,30.09,29.97,4,0,0,0.00
2013-7-17,94.6,78.7,67.8,77.9,72.4,67.5,99,82,55,30.02,29.88,5,0,0,1.08
2013-7-18,93.2,77.7,68.7,77.1,72.5,68.4,99,85,57,29.96,29.82,3,0,0,0.00
2013-7-19,91.8,80.4,72.9,76.9,74.1,72.3,99,83,60,29.88,29.73,3,0,0,0.00
2013-7-20,86.2,76.0,70.9,77.1,73.6,70.6,99,93,73,29.79,29.70,5,0,0,0.24
2013-7-21,87.1,74.4,70.0,76.9,72.3,69.7,99,94,70,29.78,29.68,4,0,0,1.33
2013-7-22,87.4,75.2,69.6,77.6,72.3,69.3,99,91,66,29.77,29.61,5,1,0,0.07
2013-7-23,87.6,76.8,69.3,75.6,72.0,69.0,99,86,60,29.67,29.54,3,0,0,0.00
2013-7-24,89.1,77.3,69.8,76.3,71.1,66.9,99,83,56,29.59,29.52,4,0,0,0.00
2013-7-25,86.5,74.4,66.4,74.6,69.2,65.4,99,85,63,29.77,29.59,5,1,0,0.99
2013-7-26,86.5,74.3,66.4,75.2,70.7,66.1,99,89,67,29.86,29.75,3,1,0,0.00
2013-7-27,81.0,73.9,68.9,76.3,72.3,68.6,99,95,76,29.78,29.65,5,0,0,1.00
2013-7-28,88.3,75.0,68.4,73.5,70.3,68.1,99,86,59,29.77,29.67,4,0,0,0.00
2013-7-29,87.8,75.5,67.5,71.6,68.0,63.5,96,79,54,29.91,29.76,3,0,0,0.00
2013-7-30,87.3,76.2,69.1,74.0,67.4,61.0,90,74,61,29.98,29.87,4,1,0,0.00
2013-7-31,78.3,72.4,68.9,74.9,71.3,68.2,99,96,86,29.92,29.75,6,1,0,0.85
2013-8-1,83.3,73.8,68.0,77.0,72.5,67.7,99,96,77,29.76,29.66,3,0,0,0.57
2013-8-2,94.8,77.3,69.4,74.8,70.6,66.6,99,81,49,29.80,29.68,4,0,0,0.00
2013-8-3,86.5,78.4,72.5,74.3,72.2,67.8,99,83,54,29.79,29.71,3,0,0,0.00
2013-8-4,88.9,78.2,71.4,74.2,69.4,61.5,96,76,56,29.79,29.70,4,0,0,0.00
2013-8-5,86.4,76.4,70.9,73.8,67.7,62.1,86,75,63,29.83,29.72,4,1,0,0.00
2013-8-6,82.4,74.0,68.9,76.5,71.7,68.6,99,93,77,29.81,29.71,4,1,0,1.86
2013-8-7,77.4,72.5,70.7,77.1,72.2,70.4,99,99,99,29.84,29.77,3,0,0,0.70
2013-8-8,83.8,74.9,70.3,76.9,73.2,70.0,99,95,76,29.85,29.77,3,0,0,0.00
2013-8-9,87.3,76.3,72.5,77.8,74.6,72.2,99,95,71,29.85,29.78,5,0,0,0.32
2013-8-10,91.6,77.4,72.1,79.5,74.8,70.9,99,92,65,29.87,29.80,4,0,0,0.05
2013-8-11,88.3,75.7,70.0,78.0,73.1,69.7,99,93,67,29.90,29.82,3,0,0,0.26
2013-8-12,88.5,76.4,70.2,77.8,73.8,69.9,99,93,66,29.85,29.71,5,0,0,0.54
2013-8-13,88.2,77.2,71.4,77.6,73.5,69.3,99,89,68,29.73,29.57,3,1,0,0.00
2013-8-14,80.1,72.8,68.4,70.4,67.3,63.8,93,83,70,29.81,29.63,4,1,0,0.00
2013-8-15,71.2,66.5,62.6,64.8,61.9,59.0,95,85,71,29.91,29.80,5,2,0,0.00
2013-8-16,73.8,64.7,59.5,66.3,61.9,59.2,99,91,73,29.92,29.84,6,2,0,0.44
2013-8-17,68.2,64.1,61.9,65.4,62.5,60.5,99,95,84,29.96,29.88,6,2,0,0.29
2013-8-18,74.1,67.6,63.1,72.1,66.8,62.8,99,98,89,30.00,29.90,4,1,0,0.41
2013-8-19,75.2,69.2,65.7,72.2,68.6,65.4,99,98,86,29.96,29.86,4,1,0,1.86
2013-8-20,80.2,72.0,67.6,73.9,70.2,67.3,99,94,79,29.96,29.87,4,0,0,0.02
2013-8-21,80.4,72.3,69.3,77.4,71.8,69.0,99,98,87,30.01,29.89,3,0,0,1.88
2013-8-22,86.0,74.0,69.6,77.5,72.3,69.3,99,95,66,29.93,29.80,4,0,0,0.93
2013-8-23,89.1,73.4,67.8,75.5,70.4,67.5,99,92,64,29.83,29.71,4,0,0,0.03
2013-8-24,82.2,71.2,64.4,69.1,65.2,61.3,99,83,56,30.04,29.81,6,2,0,0.00
2013-8-25,80.8,69.6,63.3,66.7,61.6,58.2,91,77,51,30.15,30.03,4,1,0,0.00
2013-8-26,88.3,71.3,61.9,68.8,63.3,58.5,94,77,46,30.10,29.89,4,0,0,0.00
2013-8-27,88.9,75.6,67.1,71.9,67.6,64.6,96,78,46,29.92,29.76,2,0,0,0.00
2013-8-28,89.8,79.1,69.6,75.9,70.6,67.0,94,76,55,29.79,29.70,3,0,0,0.00
2013-8-29,98.4,80.8,71.2,78.1,72.7,67.5,95,78,50,29.73,29.64,4,1,0,0.00
2013-8-30,87.3,76.4,71.2,75.4,72.5,70.9,99,89,66,29.81,29.69,5,1,0,0.35
2013-8-31,87.1,75.0,70.5,76.9,72.7,70.2,99,93,71,29.73,29.64,3,0,0,0.26
2013-9-1,86.0,75.8,70.2,77.2,73.4,69.9,99,93,74,29.69,29.57,4,0,0,0.00
2013-9-2,86.4,77.0,71.4,76.6,73.3,70.4,99,89,68,29.68,29.57,1,0,0,0.00
2013-9-3,90.9,75.4,65.7,74.4,69.2,60.7,99,83,56,29.72,29.59,4,0,0,0.09
2013-9-4,87.8,76.4,69.1,72.2,67.6,64.7,90,75,57,29.85,29.71,4,1,0,0.00
2013-9-5,89.1,77.4,69.3,73.2,67.7,53.8,94,74,45,29.89,29.79,3,0,0,0.00
2013-9-6,84.4,74.3,68.5,66.7,62.8,55.7,83,68,50,29.96,29.82,4,1,0,0.00
2013-9-7,84.4,73.6,66.2,69.6,65.4,61.9,90,76,57,29.90,29.76,3,0,0,0.00
2013-9-8,89.6,75.8,67.8,73.5,68.6,64.8,94,79,56,29.76,29.68,3,0,0,0.00
2013-9-9,87.6,77.1,71.2,72.9,69.3,67.0,90,78,58,29.90,29.75,4,1,0,0.00
2013-9-10,87.8,76.8,70.2,74.1,70.4,66.6,98,82,59,30.01,29.89,3,0,0,0.00
2013-9-11,89.6,77.4,70.7,73.1,69.3,67.0,90,77,55,29.99,29.85,2,0,0,0.00
2013-9-12,87.4,75.8,70.5,73.3,70.3,67.9,99,84,58,29.84,29.63,4,0,0,0.02
2013-9-13,85.1,73.6,66.4,70.8,63.9,53.4,98,73,51,29.65,29.54,4,1,0,0.00
2013-9-14,81.9,66.3,57.6,60.6,55.5,51.4,84,69,46,29.87,29.65,6,2,0,0.00
2013-9-15,83.7,69.4,61.9,68.6,62.1,56.6,88,78,57,29.98,29.87,4,1,0,0.00
2013-9-16,89.2,74.2,67.3,70.1,65.9,62.4,94,77,46,29.92,29.81,4,0,0,0.00
2013-9-17,72.1,67.5,63.9,63.1,59.5,56.2,84,76,67,30.07,29.90,6,2,0,0.00
2013-9-18,74.8,65.5,59.4,62.3,59.0,56.2,90,80,63,30.06,29.93,5,1,0,0.00
2013-9-19,82.4,69.7,60.8,69.8,63.9,59.5,98,83,62,29.96,29.84,2,0,0,0.00
2013-9-20,88.2,73.4,65.1,68.8,66.3,64.6,99,80,52,29.85,29.68,3,0,0,0.00
2013-9-21,71.8,68.0,62.4,70.4,66.8,62.1,99,96,80,29.69,29.41,4,0,0,1.93
2013-9-22,82.0,66.4,58.3,66.0,61.2,57.1,99,85,57,29.66,29.49,3,0,0,0.00
2013-9-23,77.9,66.4,61.3,64.8,59.0,55.1,86,77,57,29.83,29.67,4,1,0,0.00
2013-9-24,76.6,66.7,60.1,66.1,61.8,57.9,98,85,67,29.84,29.71,2,0,0,0.01
2013-9-25,64.0,62.5,60.8,63.7,61.9,59.7,99,98,96,29.71,29.64,4,0,0,1.27
2013-9-26,75.2,63.7,58.3,63.9,59.8,56.0,96,88,62,29.80,29.65,5,1,0,0.00
2013-9-27,75.2,64.8,58.1,62.6,58.2,53.5,93,80,59,29.94,29.80,4,1,0,0.00
2013-9-28,73.8,62.7,57.0,60.7,57.4,55.3,95,84,61,30.03,29.90,8,1,0,0.00
2013-9-29,73.0,62.2,54.9,61.8,56.9,52.9,96,84,59,29.95,29.81,5,0,0,0.00
2013-9-30,75.9,64.5,58.1,62.6,59.1,56.7,96,83,60,29.88,29.77,4,0,0,0.00
2013-10-1,80.1,67.8,60.6,63.6,59.9,57.7,95,78,49,29.94,29.81,3,0,0,0.00
2013-10-2,81.3,70.8,64.0,69.0,63.0,59.5,90,77,55,29.93,29.84,3,0,0,0.00
2013-10-3,86.0,72.2,65.1,66.1,63.4,61.7,91,75,48,29.92,29.83,4,0,0,0.00
2013-10-4,84.7,72.6,64.6,68.8,64.8,61.8,93,78,55,29.93,29.84,3,0,0,0.00
2013-10-5,87.1,74.4,68.2,69.4,65.5,63.1,89,75,54,29.90,29.79,3,0,0,0.00
2013-10-6,81.9,72.7,66.6,69.4,65.8,62.8,93,79,64,29.82,29.63,3,0,0,0.00
2013-10-7,72.7,66.9,61.0,69.9,62.3,51.8,95,86,69,29.75,29.57,6,1,0,1.62
2013-10-8,68.2,61.2,56.5,57.1,52.4,48.4,85,73,60,29.95,29.74,7,2,0,0.00
2013-10-9,72.3,60.5,53.2,55.0,48.8,45.1,78,66,44,30.00,29.88,7,2,0,0.00
2013-10-10,79.0,63.8,52.0,59.6,53.1,47.6,93,70,45,29.91,29.76,3,1,0,0.00
2013-10-11,80.6,69.3,60.8,60.3,56.2,52.1,86,64,39,29.80,29.69,6,1,0,0.00
2013-10-12,76.5,68.4,61.5,65.4,59.9,54.7,89,75,59,29.85,29.73,4,0,0,0.00
2013-10-13,74.1,67.1,63.0,66.4,63.6,61.2,96,89,73,29.99,29.86,6,1,0,0.00
2013-10-14,69.3,64.6,61.9,65.1,62.8,61.0,97,94,83,30.01,29.91,4,1,0,0.00
2013-10-15,67.1,61.6,57.0,61.6,58.9,56.4,98,91,77,29.96,29.83,4,1,0,0.00
2013-10-16,72.0,63.7,57.4,61.7,58.4,55.0,94,83,66,29.85,29.74,3,0,0,0.00
2013-10-17,66.2,63.7,61.3,64.6,62.5,59.4,99,96,86,29.74,29.64,3,0,0,0.35
2013-10-18,70.7,61.6,53.8,64.6,58.7,53.0,99,91,68,29.80,29.67,4,0,0,0.00
2013-10-19,61.7,59.4,54.5,60.3,58.3,54.2,99,96,86,29.73,29.64,4,0,0,0.02
2013-10-20,54.5,-13.7,-40.0,54.2,-57.0,-99.9,99,28,99,29.86,29.71,4,0,0,0.00
2013-10-21,-40.0,-40.0,-40.0,-99.9,-99.9,-104.6,0,0,100,29.94,29.78,3,1,0,0.00
2013-10-22,-40.0,-40.0,-40.0,-99.9,-99.9,-104.6,0,0,100,29.80,29.60,2,0,0,0.00
2013-10-23,-40.0,-40.0,-40.0,-99.9,-99.9,-104.6,0,0,100,29.66,29.58,7,3,0,0.00
2013-10-24,-40.0,-40.0,-40.0,-99.9,-99.9,-104.6,0,0,100,29.86,29.85,2,0,0,0.00
2013-10-27,-40.0,-40.0,-40.0,-99.9,-99.9,-104.6,0,0,100,29.87,29.84,3,1,0,0.00
2013-10-28,-40.0,-40.0,-40.0,-99.9,-99.9,-104.6,0,0,100,29.98,29.98,3,1,0,0.00
2013-10-29,-40.0,-40.0,-40.0,-99.9,-99.9,-104.6,0,0,100,30.07,30.02,3,1,0,0.00
2013-10-30,-40.0,-40.0,-40.0,-99.9,-99.9,-104.6,0,0,100,30.02,29.93,3,1,0,0.00